Shreveport, LA

4:50 PM CDT on April 25, 2015 (GMT -0500)
Central Bossier | | Change Station
CLOSE
Current Station
Personal Weather Station
Location: Bossier City, LA
Elevation: 177 ft
Nearby Weather Stations

Elev 177 ft 32.52 °N, 93.71 °W | Updated 13 minutes ago

Clear
Clear
92.3 °F
Feels Like 92 °F
N
3.8
Wind Variable Wind from WNW

Today
High -- | Low -- °F
--% Chance of Precip.
Yesterday
High -- | Low -- °F
Precip. -- in
6:34 AM 7:51 PM
Waxing Crescent, 49% visible
Pressure 29.63 in
Visibility 10.0 miles
Clouds Clear
Heat Index 92 °F
Dew Point 59 °F
Humidity 33%
Rainfall 0.06 in
Snow Depth Not available.
UV 7 out of 12
Pollen 8.00 out of 12
Air Quality Not available.
Flu Activity Sporadic
METAR KDTN 252053Z AUTO 26010KT 10SM CLR 31/12 A2964 RMK AO2 SLP034 T03060117 56014

More Conditions Fewer Conditions

Pressure 29.63 in
Visibility 10.0 miles
Clouds Clear
Heat Index 92 °F
Dew Point 59 °F
Humidity 33%
Rainfall 0.06 in
Snow Depth Not available.
UV 7 out of 12
Pollen 8.00 out of 12
Air Quality Not available.
Flu Activity Sporadic
METAR KDTN 252053Z AUTO 26010KT 10SM CLR 31/12 A2964 RMK AO2 SLP034 T03060117 56014

More Conditions Fewer Conditions

10-Day Weather Forecast

Almanac

Astronomy

Apr. 25, 2015 Rise Set
Actual Time
Civil Twilight
Nautical Twilight
Astronomical Twilight
Moon
Length of Visible Light
Length of Day
Tomorrow will be .
, % of the Moon is Illuminated

Today's Extremes

State Highs State Lows

Community

WunderPhotos

Upload Photos

1,816,820 photos uploaded!

WunderBlogs® & News

Nearby

Air Quality

  Air Quality AQ Index Pollutant
Not available.

Snow Depth

Station Depth Elevation

Earthquake Activity

City Distance Mag. Time & Date
Minimum magnitude displayed is 2.5.

Coastal Water Temperatures

Place Temperature

Stations

Nearby Weather Stations

Station Location Temp. Windchill Dew Point Humidity Wind Precip. Elev Updated Type